sensor_id;sensor_type;location;lat;lon;timestamp;temperature;humidity
41058;DHT22;66768;48.884;2.258;2024-02-04T00:00:11;11.80;99.90
41058;DHT22;66768;48.884;2.258;2024-02-04T00:02:40;11.90;99.90
41058;DHT22;66768;48.884;2.258;2024-02-04T00:05:09;11.90;99.90
41058;DHT22;66768;48.884;2.258;2024-02-04T00:07:35;11.90;99.90
41058;DHT22;66768;48.884;2.258;2024-02-04T00:10:02;12.00;99.90
41058;DHT22;66768;48.884;2.258;2024-02-04T00:12:29;11.90;99.90
41058;DHT22;66768;48.884;2.258;2024-02-04T00:14:56;11.90;99.90
41058;DHT22;66768;48.884;2.258;2024-02-04T00:17:23;11.90;99.90
41058;DHT22;66768;48.884;2.258;2024-02-04T00:19:56;11.90;99.90
41058;DHT22;66768;48.884;2.258;2024-02-04T00:22:23;11.90;99.90
41058;DHT22;66768;48.884;2.258;2024-02-04T00:24:50;12.00;99.90
41058;DHT22;66768;48.884;2.258;2024-02-04T00:27:17;12.00;99.90
41058;DHT22;66768;48.884;2.258;2024-02-04T00:29:44;12.00;99.90
41058;DHT22;66768;48.884;2.258;2024-02-04T00:32:11;11.90;99.90
41058;DHT22;66768;48.884;2.258;2024-02-04T00:34:38;12.00;99.90
41058;DHT22;66768;48.884;2.258;2024-02-04T00:37:06;12.00;99.90
41058;DHT22;66768;48.884;2.258;2024-02-04T00:39:33;12.00;99.90
41058;DHT22;66768;48.884;2.258;2024-02-04T00:42:00;12.00;99.90
41058;DHT22;66768;48.884;2.258;2024-02-04T00:44:26;12.00;99.90
41058;DHT22;66768;48.884;2.258;2024-02-04T00:46:53;12.00;99.90
41058;DHT22;66768;48.884;2.258;2024-02-04T00:49:20;12.00;99.90
41058;DHT22;66768;48.884;2.258;2024-02-04T00:51:47;12.00;99.90
41058;DHT22;66768;48.884;2.258;2024-02-04T00:54:15;12.00;99.90
41058;DHT22;66768;48.884;2.258;2024-02-04T00:56:42;12.00;99.90
41058;DHT22;66768;48.884;2.258;2024-02-04T00:59:09;11.90;99.90
41058;DHT22;66768;48.884;2.258;2024-02-04T01:01:36;12.00;99.90
41058;DHT22;66768;48.884;2.258;2024-02-04T01:04:05;12.00;99.90
41058;DHT22;66768;48.884;2.258;2024-02-04T01:06:31;12.00;99.90
41058;DHT22;66768;48.884;2.258;2024-02-04T01:08:58;12.00;99.90
41058;DHT22;66768;48.884;2.258;2024-02-04T01:11:26;12.00;99.90
41058;DHT22;66768;48.884;2.258;2024-02-04T01:13:54;12.00;99.90
41058;DHT22;66768;48.884;2.258;2024-02-04T01:16:21;12.00;99.90
41058;DHT22;66768;48.884;2.258;2024-02-04T01:18:48;12.00;99.90
41058;DHT22;66768;48.884;2.258;2024-02-04T01:21:17;12.00;99.90
41058;DHT22;66768;48.884;2.258;2024-02-04T01:23:44;12.00;99.90
41058;DHT22;66768;48.884;2.258;2024-02-04T01:26:10;12.00;99.90
41058;DHT22;66768;48.884;2.258;2024-02-04T01:28:38;12.00;99.90
41058;DHT22;66768;48.884;2.258;2024-02-04T01:31:05;12.00;99.90
41058;DHT22;66768;48.884;2.258;2024-02-04T01:33:32;12.00;99.90
41058;DHT22;66768;48.884;2.258;2024-02-04T01:35:59;12.00;99.90
41058;DHT22;66768;48.884;2.258;2024-02-04T01:38:26;12.00;99.90
41058;DHT22;66768;48.884;2.258;2024-02-04T01:40:53;12.00;99.90
41058;DHT22;66768;48.884;2.258;2024-02-04T01:43:19;12.00;99.90
41058;DHT22;66768;48.884;2.258;2024-02-04T01:45:50;11.90;99.90
41058;DHT22;66768;48.884;2.258;2024-02-04T01:48:19;11.90;99.90
41058;DHT22;66768;48.884;2.258;2024-02-04T01:50:47;11.90;99.90
41058;DHT22;66768;48.884;2.258;2024-02-04T01:53:15;11.90;99.90
41058;DHT22;66768;48.884;2.258;2024-02-04T01:55:42;11.90;99.90
41058;DHT22;66768;48.884;2.258;2024-02-04T01:58:09;11.90;99.90
41058;DHT22;66768;48.884;2.258;2024-02-04T02:00:36;11.90;99.90
41058;DHT22;66768;48.884;2.258;2024-02-04T02:03:06;11.90;99.90
41058;DHT22;66768;48.884;2.258;2024-02-04T02:05:34;11.90;99.90
41058;DHT22;66768;48.884;2.258;2024-02-04T02:08:01;11.90;99.90
41058;DHT22;66768;48.884;2.258;2024-02-04T02:10:28;11.90;99.90
41058;DHT22;66768;48.884;2.258;2024-02-04T02:13:00;11.80;99.90
41058;DHT22;66768;48.884;2.258;2024-02-04T02:15:32;11.90;99.90
41058;DHT22;66768;48.884;2.258;2024-02-04T02:18:07;11.90;99.90
41058;DHT22;66768;48.884;2.258;2024-02-04T02:20:45;11.90;99.90
41058;DHT22;66768;48.884;2.258;2024-02-04T02:23:22;11.90;99.90
41058;DHT22;66768;48.884;2.258;2024-02-04T02:25:51;11.90;99.90
41058;DHT22;66768;48.884;2.258;2024-02-04T02:28:19;11.90;99.90
41058;DHT22;66768;48.884;2.258;2024-02-04T02:30:45;11.90;99.90
41058;DHT22;66768;48.884;2.258;2024-02-04T02:33:13;11.90;99.90
41058;DHT22;66768;48.884;2.258;2024-02-04T02:35:40;11.90;99.90
41058;DHT22;66768;48.884;2.258;2024-02-04T02:38:14;11.90;99.90
41058;DHT22;66768;48.884;2.258;2024-02-04T02:40:47;12.00;99.90
41058;DHT22;66768;48.884;2.258;2024-02-04T02:43:16;11.90;99.90
41058;DHT22;66768;48.884;2.258;2024-02-04T02:45:43;11.90;99.90
41058;DHT22;66768;48.884;2.258;2024-02-04T02:48:11;11.90;99.90
41058;DHT22;66768;48.884;2.258;2024-02-04T02:50:40;11.90;99.90
41058;DHT22;66768;48.884;2.258;2024-02-04T02:53:07;11.90;99.90
41058;DHT22;66768;48.884;2.258;2024-02-04T02:55:34;11.90;99.90
41058;DHT22;66768;48.884;2.258;2024-02-04T02:58:01;11.90;99.90
41058;DHT22;66768;48.884;2.258;2024-02-04T03:00:29;11.90;99.90
41058;DHT22;66768;48.884;2.258;2024-02-04T03:02:56;11.90;99.90
41058;DHT22;66768;48.884;2.258;2024-02-04T03:05:24;11.90;99.90
41058;DHT22;66768;48.884;2.258;2024-02-04T03:07:53;11.80;99.90
41058;DHT22;66768;48.884;2.258;2024-02-04T03:10:19;11.80;99.90
41058;DHT22;66768;48.884;2.258;2024-02-04T03:12:46;11.80;99.90
41058;DHT22;66768;48.884;2.258;2024-02-04T03:15:13;11.90;99.90
41058;DHT22;66768;48.884;2.258;2024-02-04T03:17:42;11.80;99.90
41058;DHT22;66768;48.884;2.258;2024-02-04T03:20:10;11.80;99.90
41058;DHT22;66768;48.884;2.258;2024-02-04T03:22:37;11.80;99.90
41058;DHT22;66768;48.884;2.258;2024-02-04T03:25:05;11.90;99.90
41058;DHT22;66768;48.884;2.258;2024-02-04T03:27:32;11.80;99.90
41058;DHT22;66768;48.884;2.258;2024-02-04T03:29:59;11.90;99.90
41058;DHT22;66768;48.884;2.258;2024-02-04T03:32:28;11.80;99.90
41058;DHT22;66768;48.884;2.258;2024-02-04T03:35:00;11.80;99.90
41058;DHT22;66768;48.884;2.258;2024-02-04T03:37:27;11.90;99.90
41058;DHT22;66768;48.884;2.258;2024-02-04T03:39:54;11.80;99.90
41058;DHT22;66768;48.884;2.258;2024-02-04T03:42:20;11.80;99.90
41058;DHT22;66768;48.884;2.258;2024-02-04T03:44:47;11.80;99.90
41058;DHT22;66768;48.884;2.258;2024-02-04T03:47:14;11.80;99.90
41058;DHT22;66768;48.884;2.258;2024-02-04T03:49:41;11.90;99.90
41058;DHT22;66768;48.884;2.258;2024-02-04T03:52:10;11.90;99.90
41058;DHT22;66768;48.884;2.258;2024-02-04T03:54:36;11.90;99.90
41058;DHT22;66768;48.884;2.258;2024-02-04T03:57:04;11.80;99.90
41058;DHT22;66768;48.884;2.258;2024-02-04T03:59:31;11.80;99.90
41058;DHT22;66768;48.884;2.258;2024-02-04T04:01:59;11.80;99.90
41058;DHT22;66768;48.884;2.258;2024-02-04T04:04:25;11.80;99.90
41058;DHT22;66768;48.884;2.258;2024-02-04T04:06:52;11.80;99.90
41058;DHT22;66768;48.884;2.258;2024-02-04T04:09:20;11.80;99.90
41058;DHT22;66768;48.884;2.258;2024-02-04T04:11:47;11.80;99.90
41058;DHT22;66768;48.884;2.258;2024-02-04T04:14:14;11.80;99.90
41058;DHT22;66768;48.884;2.258;2024-02-04T04:16:41;11.80;99.90
41058;DHT22;66768;48.884;2.258;2024-02-04T04:19:08;11.80;99.90
41058;DHT22;66768;48.884;2.258;2024-02-04T04:21:35;11.80;99.90
41058;DHT22;66768;48.884;2.258;2024-02-04T04:24:04;11.80;99.90
41058;DHT22;66768;48.884;2.258;2024-02-04T04:26:32;11.80;99.90
41058;DHT22;66768;48.884;2.258;2024-02-04T04:29:00;11.80;99.90
41058;DHT22;66768;48.884;2.258;2024-02-04T04:31:26;11.80;99.90
41058;DHT22;66768;48.884;2.258;2024-02-04T04:33:54;11.80;99.90
41058;DHT22;66768;48.884;2.258;2024-02-04T04:36:24;11.80;99.90
41058;DHT22;66768;48.884;2.258;2024-02-04T04:38:50;11.80;99.90
41058;DHT22;66768;48.884;2.258;2024-02-04T04:41:17;11.80;99.90
41058;DHT22;66768;48.884;2.258;2024-02-04T04:43:45;11.80;99.90
41058;DHT22;66768;48.884;2.258;2024-02-04T04:46:12;11.80;99.90
41058;DHT22;66768;48.884;2.258;2024-02-04T04:48:41;11.70;99.90
41058;DHT22;66768;48.884;2.258;2024-02-04T04:51:08;11.80;99.90
41058;DHT22;66768;48.884;2.258;2024-02-04T04:53:36;11.70;99.90
41058;DHT22;66768;48.884;2.258;2024-02-04T04:56:04;11.80;99.90
41058;DHT22;66768;48.884;2.258;2024-02-04T04:58:31;11.80;99.90
41058;DHT22;66768;48.884;2.258;2024-02-04T05:00:59;11.80;99.90
41058;DHT22;66768;48.884;2.258;2024-02-04T05:03:26;11.80;99.90
41058;DHT22;66768;48.884;2.258;2024-02-04T05:05:53;11.80;99.90
41058;DHT22;66768;48.884;2.258;2024-02-04T05:08:20;11.80;99.90
41058;DHT22;66768;48.884;2.258;2024-02-04T05:10:47;11.80;99.90
41058;DHT22;66768;48.884;2.258;2024-02-04T05:13:14;11.80;99.90
41058;DHT22;66768;48.884;2.258;2024-02-04T05:15:41;11.80;99.90
41058;DHT22;66768;48.884;2.258;2024-02-04T05:18:09;11.80;99.90
41058;DHT22;66768;48.884;2.258;2024-02-04T05:20:38;11.80;99.90
41058;DHT22;66768;48.884;2.258;2024-02-04T05:23:05;11.80;99.90
41058;DHT22;66768;48.884;2.258;2024-02-04T05:25:31;11.80;99.90
41058;DHT22;66768;48.884;2.258;2024-02-04T05:27:58;11.80;99.90
41058;DHT22;66768;48.884;2.258;2024-02-04T05:30:25;11.80;99.90
41058;DHT22;66768;48.884;2.258;2024-02-04T05:32:52;11.80;99.90
41058;DHT22;66768;48.884;2.258;2024-02-04T05:35:20;11.80;99.90
41058;DHT22;66768;48.884;2.258;2024-02-04T05:37:47;11.80;99.90
41058;DHT22;66768;48.884;2.258;2024-02-04T05:40:14;11.80;99.90
41058;DHT22;66768;48.884;2.258;2024-02-04T05:42:42;11.80;99.90
41058;DHT22;66768;48.884;2.258;2024-02-04T05:45:09;11.80;99.90
41058;DHT22;66768;48.884;2.258;2024-02-04T05:47:38;11.80;99.90
41058;DHT22;66768;48.884;2.258;2024-02-04T05:50:06;11.80;99.90
41058;DHT22;66768;48.884;2.258;2024-02-04T05:52:37;11.80;99.90
41058;DHT22;66768;48.884;2.258;2024-02-04T05:55:05;11.80;99.90
41058;DHT22;66768;48.884;2.258;2024-02-04T05:57:35;11.80;99.90
41058;DHT22;66768;48.884;2.258;2024-02-04T06:00:02;11.80;99.90
41058;DHT22;66768;48.884;2.258;2024-02-04T06:02:30;11.80;99.90
41058;DHT22;66768;48.884;2.258;2024-02-04T06:04:56;11.80;99.90
41058;DHT22;66768;48.884;2.258;2024-02-04T06:07:23;11.80;99.90
41058;DHT22;66768;48.884;2.258;2024-02-04T06:09:51;11.80;99.90
41058;DHT22;66768;48.884;2.258;2024-02-04T06:12:18;11.80;99.90
41058;DHT22;66768;48.884;2.258;2024-02-04T06:14:45;11.80;99.90
41058;DHT22;66768;48.884;2.258;2024-02-04T06:17:12;11.80;99.90
41058;DHT22;66768;48.884;2.258;2024-02-04T06:19:39;11.80;99.90
41058;DHT22;66768;48.884;2.258;2024-02-04T06:22:06;11.80;99.90
41058;DHT22;66768;48.884;2.258;2024-02-04T06:24:32;11.80;99.90
41058;DHT22;66768;48.884;2.258;2024-02-04T06:27:01;11.80;99.90
41058;DHT22;66768;48.884;2.258;2024-02-04T06:29:28;11.80;99.90
41058;DHT22;66768;48.884;2.258;2024-02-04T06:31:55;11.80;99.90
41058;DHT22;66768;48.884;2.258;2024-02-04T06:34:21;11.80;99.90
41058;DHT22;66768;48.884;2.258;2024-02-04T06:36:48;11.80;99.90
41058;DHT22;66768;48.884;2.258;2024-02-04T06:39:15;11.80;99.90
41058;DHT22;66768;48.884;2.258;2024-02-04T06:41:42;11.80;99.90
41058;DHT22;66768;48.884;2.258;2024-02-04T06:44:12;11.80;99.90
41058;DHT22;66768;48.884;2.258;2024-02-04T06:46:39;11.80;99.90
41058;DHT22;66768;48.884;2.258;2024-02-04T06:49:08;11.80;99.90
41058;DHT22;66768;48.884;2.258;2024-02-04T06:51:34;11.80;99.90
41058;DHT22;66768;48.884;2.258;2024-02-04T06:54:01;11.80;99.90
41058;DHT22;66768;48.884;2.258;2024-02-04T06:56:28;11.80;99.90
41058;DHT22;66768;48.884;2.258;2024-02-04T06:58:55;11.80;99.90
41058;DHT22;66768;48.884;2.258;2024-02-04T07:01:24;11.70;99.90
41058;DHT22;66768;48.884;2.258;2024-02-04T07:03:53;11.80;99.90
41058;DHT22;66768;48.884;2.258;2024-02-04T07:06:20;11.70;99.90
41058;DHT22;66768;48.884;2.258;2024-02-04T07:08:47;11.70;99.90
41058;DHT22;66768;48.884;2.258;2024-02-04T07:11:14;11.70;99.90
41058;DHT22;66768;48.884;2.258;2024-02-04T07:13:41;11.70;99.90
41058;DHT22;66768;48.884;2.258;2024-02-04T07:16:08;11.70;99.90
41058;DHT22;66768;48.884;2.258;2024-02-04T07:18:36;11.70;99.90
41058;DHT22;66768;48.884;2.258;2024-02-04T07:21:03;11.70;99.90
41058;DHT22;66768;48.884;2.258;2024-02-04T07:23:30;11.70;99.90
41058;DHT22;66768;48.884;2.258;2024-02-04T07:25:57;11.70;99.90
41058;DHT22;66768;48.884;2.258;2024-02-04T07:28:24;11.70;99.90
41058;DHT22;66768;48.884;2.258;2024-02-04T07:30:50;11.70;99.90
41058;DHT22;66768;48.884;2.258;2024-02-04T07:33:17;11.70;99.90
41058;DHT22;66768;48.884;2.258;2024-02-04T07:35:45;11.70;99.90
41058;DHT22;66768;48.884;2.258;2024-02-04T07:38:12;11.70;99.90
41058;DHT22;66768;48.884;2.258;2024-02-04T07:40:39;11.80;99.90
41058;DHT22;66768;48.884;2.258;2024-02-04T07:43:06;11.70;99.90
41058;DHT22;66768;48.884;2.258;2024-02-04T07:45:34;11.70;99.90
41058;DHT22;66768;48.884;2.258;2024-02-04T07:48:01;11.70;99.90
41058;DHT22;66768;48.884;2.258;2024-02-04T07:50:28;11.70;99.90
41058;DHT22;66768;48.884;2.258;2024-02-04T07:52:56;11.70;99.90
41058;DHT22;66768;48.884;2.258;2024-02-04T07:55:23;11.70;99.90
41058;DHT22;66768;48.884;2.258;2024-02-04T07:57:50;11.80;99.90
41058;DHT22;66768;48.884;2.258;2024-02-04T08:00:17;11.80;99.90
41058;DHT22;66768;48.884;2.258;2024-02-04T08:02:45;11.80;99.90
41058;DHT22;66768;48.884;2.258;2024-02-04T08:05:12;11.80;99.90
41058;DHT22;66768;48.884;2.258;2024-02-04T08:07:39;11.80;99.90
41058;DHT22;66768;48.884;2.258;2024-02-04T08:10:08;11.80;99.90
41058;DHT22;66768;48.884;2.258;2024-02-04T08:12:35;11.80;99.90
41058;DHT22;66768;48.884;2.258;2024-02-04T08:15:03;11.80;99.90
41058;DHT22;66768;48.884;2.258;2024-02-04T08:17:30;11.80;99.90
41058;DHT22;66768;48.884;2.258;2024-02-04T08:19:57;11.80;99.90
41058;DHT22;66768;48.884;2.258;2024-02-04T08:22:24;11.80;99.90
41058;DHT22;66768;48.884;2.258;2024-02-04T08:24:51;11.80;99.90
41058;DHT22;66768;48.884;2.258;2024-02-04T08:27:19;11.80;99.90
41058;DHT22;66768;48.884;2.258;2024-02-04T08:29:46;11.80;99.90
41058;DHT22;66768;48.884;2.258;2024-02-04T08:32:13;11.80;99.90
41058;DHT22;66768;48.884;2.258;2024-02-04T08:34:40;11.80;99.90
41058;DHT22;66768;48.884;2.258;2024-02-04T08:37:06;11.80;99.90
41058;DHT22;66768;48.884;2.258;2024-02-04T08:39:33;11.80;99.90
41058;DHT22;66768;48.884;2.258;2024-02-04T08:42:00;11.80;99.90
41058;DHT22;66768;48.884;2.258;2024-02-04T08:44:28;11.90;99.90
41058;DHT22;66768;48.884;2.258;2024-02-04T08:46:55;11.90;99.90
41058;DHT22;66768;48.884;2.258;2024-02-04T08:49:22;11.90;99.90
41058;DHT22;66768;48.884;2.258;2024-02-04T08:51:49;11.90;99.90
41058;DHT22;66768;48.884;2.258;2024-02-04T08:54:16;11.90;99.90
41058;DHT22;66768;48.884;2.258;2024-02-04T08:56:44;11.90;99.90
41058;DHT22;66768;48.884;2.258;2024-02-04T08:59:11;11.90;99.90
41058;DHT22;66768;48.884;2.258;2024-02-04T09:01:39;11.90;99.90
41058;DHT22;66768;48.884;2.258;2024-02-04T09:04:06;11.90;99.90
41058;DHT22;66768;48.884;2.258;2024-02-04T09:06:32;12.00;99.90
41058;DHT22;66768;48.884;2.258;2024-02-04T09:08:59;12.00;99.90
41058;DHT22;66768;48.884;2.258;2024-02-04T09:11:26;12.00;99.90
41058;DHT22;66768;48.884;2.258;2024-02-04T09:13:53;12.00;99.90
41058;DHT22;66768;48.884;2.258;2024-02-04T09:16:20;12.00;99.90
41058;DHT22;66768;48.884;2.258;2024-02-04T09:18:48;12.00;99.90
41058;DHT22;66768;48.884;2.258;2024-02-04T09:21:15;12.00;99.90
41058;DHT22;66768;48.884;2.258;2024-02-04T09:23:42;12.00;99.90
41058;DHT22;66768;48.884;2.258;2024-02-04T09:26:08;12.00;99.90
41058;DHT22;66768;48.884;2.258;2024-02-04T09:28:35;12.10;99.90
41058;DHT22;66768;48.884;2.258;2024-02-04T09:31:03;12.10;99.90
41058;DHT22;66768;48.884;2.258;2024-02-04T09:33:30;12.20;99.90
41058;DHT22;66768;48.884;2.258;2024-02-04T09:35:58;12.20;99.90
41058;DHT22;66768;48.884;2.258;2024-02-04T09:38:25;12.20;99.90
41058;DHT22;66768;48.884;2.258;2024-02-04T09:40:52;12.20;99.90
41058;DHT22;66768;48.884;2.258;2024-02-04T09:43:19;12.20;99.90
41058;DHT22;66768;48.884;2.258;2024-02-04T09:45:47;12.20;99.90
41058;DHT22;66768;48.884;2.258;2024-02-04T09:48:20;12.20;99.90
41058;DHT22;66768;48.884;2.258;2024-02-04T09:50:50;12.20;99.90
41058;DHT22;66768;48.884;2.258;2024-02-04T09:53:24;12.20;99.90
41058;DHT22;66768;48.884;2.258;2024-02-04T09:55:55;12.30;99.90
41058;DHT22;66768;48.884;2.258;2024-02-04T09:58:23;12.30;99.90
41058;DHT22;66768;48.884;2.258;2024-02-04T10:00:51;12.30;99.90
41058;DHT22;66768;48.884;2.258;2024-02-04T10:03:17;12.30;99.90
41058;DHT22;66768;48.884;2.258;2024-02-04T10:05:44;12.30;99.90
41058;DHT22;66768;48.884;2.258;2024-02-04T10:08:11;12.30;99.90
41058;DHT22;66768;48.884;2.258;2024-02-04T10:10:42;12.30;99.90
41058;DHT22;66768;48.884;2.258;2024-02-04T10:13:09;12.30;99.90
41058;DHT22;66768;48.884;2.258;2024-02-04T10:15:36;12.40;99.90
41058;DHT22;66768;48.884;2.258;2024-02-04T10:18:03;12.40;99.90
41058;DHT22;66768;48.884;2.258;2024-02-04T10:20:31;12.40;99.90
41058;DHT22;66768;48.884;2.258;2024-02-04T10:22:58;12.50;99.90
41058;DHT22;66768;48.884;2.258;2024-02-04T10:25:25;12.50;99.90
41058;DHT22;66768;48.884;2.258;2024-02-04T10:27:54;12.50;99.90
41058;DHT22;66768;48.884;2.258;2024-02-04T10:30:21;12.60;99.90
41058;DHT22;66768;48.884;2.258;2024-02-04T10:32:50;12.60;99.90
41058;DHT22;66768;48.884;2.258;2024-02-04T10:35:18;12.70;99.90
41058;DHT22;66768;48.884;2.258;2024-02-04T10:37:45;12.70;99.90
41058;DHT22;66768;48.884;2.258;2024-02-04T10:40:12;12.70;99.90
41058;DHT22;66768;48.884;2.258;2024-02-04T10:42:41;12.70;99.90
41058;DHT22;66768;48.884;2.258;2024-02-04T10:45:13;12.70;99.90
41058;DHT22;66768;48.884;2.258;2024-02-04T10:47:48;12.70;99.90
41058;DHT22;66768;48.884;2.258;2024-02-04T10:50:20;12.70;99.90
41058;DHT22;66768;48.884;2.258;2024-02-04T10:52:48;12.70;99.90
41058;DHT22;66768;48.884;2.258;2024-02-04T10:55:17;12.70;99.90
41058;DHT22;66768;48.884;2.258;2024-02-04T10:57:48;12.70;99.90
41058;DHT22;66768;48.884;2.258;2024-02-04T11:00:18;12.70;99.90
41058;DHT22;66768;48.884;2.258;2024-02-04T11:02:46;12.70;99.90
41058;DHT22;66768;48.884;2.258;2024-02-04T11:05:15;12.70;99.90
41058;DHT22;66768;48.884;2.258;2024-02-04T11:07:43;12.70;99.90
41058;DHT22;66768;48.884;2.258;2024-02-04T11:10:11;12.80;99.90
41058;DHT22;66768;48.884;2.258;2024-02-04T11:12:39;12.80;99.90
41058;DHT22;66768;48.884;2.258;2024-02-04T11:15:10;12.80;99.90
41058;DHT22;66768;48.884;2.258;2024-02-04T11:17:59;12.90;99.90
41058;DHT22;66768;48.884;2.258;2024-02-04T11:20:50;12.90;99.90
41058;DHT22;66768;48.884;2.258;2024-02-04T11:23:42;12.80;99.90
41058;DHT22;66768;48.884;2.258;2024-02-04T11:26:13;12.90;99.90
41058;DHT22;66768;48.884;2.258;2024-02-04T11:28:43;12.90;99.90
41058;DHT22;66768;48.884;2.258;2024-02-04T11:31:14;12.90;99.90
41058;DHT22;66768;48.884;2.258;2024-02-04T11:33:43;12.90;99.90
41058;DHT22;66768;48.884;2.258;2024-02-04T11:36:13;13.00;99.90
41058;DHT22;66768;48.884;2.258;2024-02-04T11:38:40;13.00;99.90
41058;DHT22;66768;48.884;2.258;2024-02-04T11:41:07;13.00;99.90
41058;DHT22;66768;48.884;2.258;2024-02-04T11:43:36;13.00;99.90
41058;DHT22;66768;48.884;2.258;2024-02-04T11:46:04;13.00;99.90
41058;DHT22;66768;48.884;2.258;2024-02-04T11:48:33;13.00;99.90
41058;DHT22;66768;48.884;2.258;2024-02-04T11:51:02;13.00;99.90
41058;DHT22;66768;48.884;2.258;2024-02-04T11:53:30;12.90;99.90
41058;DHT22;66768;48.884;2.258;2024-02-04T11:55:58;12.90;99.90
41058;DHT22;66768;48.884;2.258;2024-02-04T11:58:27;12.90;99.90
41058;DHT22;66768;48.884;2.258;2024-02-04T12:00:54;12.80;99.90
41058;DHT22;66768;48.884;2.258;2024-02-04T12:03:29;12.80;99.90
41058;DHT22;66768;48.884;2.258;2024-02-04T12:05:56;12.80;99.90
41058;DHT22;66768;48.884;2.258;2024-02-04T12:08:30;12.80;99.90
41058;DHT22;66768;48.884;2.258;2024-02-04T12:10:57;12.80;99.90
41058;DHT22;66768;48.884;2.258;2024-02-04T12:13:24;12.80;99.90
41058;DHT22;66768;48.884;2.258;2024-02-04T12:15:51;12.80;99.90
41058;DHT22;66768;48.884;2.258;2024-02-04T12:18:18;12.80;99.90
41058;DHT22;66768;48.884;2.258;2024-02-04T12:20:46;12.80;99.90
41058;DHT22;66768;48.884;2.258;2024-02-04T12:23:14;12.90;99.90
41058;DHT22;66768;48.884;2.258;2024-02-04T12:25:42;12.90;99.90
41058;DHT22;66768;48.884;2.258;2024-02-04T12:28:09;12.90;99.90
41058;DHT22;66768;48.884;2.258;2024-02-04T12:30:36;13.00;99.90
41058;DHT22;66768;48.884;2.258;2024-02-04T12:33:04;13.00;99.90
41058;DHT22;66768;48.884;2.258;2024-02-04T12:35:32;13.00;99.90
41058;DHT22;66768;48.884;2.258;2024-02-04T12:38:00;13.00;99.90
41058;DHT22;66768;48.884;2.258;2024-02-04T12:40:29;13.00;99.90
41058;DHT22;66768;48.884;2.258;2024-02-04T12:42:59;12.90;99.90
41058;DHT22;66768;48.884;2.258;2024-02-04T12:45:27;12.90;99.90
41058;DHT22;66768;48.884;2.258;2024-02-04T12:47:56;12.90;99.90
41058;DHT22;66768;48.884;2.258;2024-02-04T12:50:24;12.90;99.90
41058;DHT22;66768;48.884;2.258;2024-02-04T12:53:02;12.90;99.90
41058;DHT22;66768;48.884;2.258;2024-02-04T12:55:29;12.90;99.90
41058;DHT22;66768;48.884;2.258;2024-02-04T12:58:06;12.90;99.90
41058;DHT22;66768;48.884;2.258;2024-02-04T13:00:34;12.80;99.90
41058;DHT22;66768;48.884;2.258;2024-02-04T13:03:01;12.80;99.90
41058;DHT22;66768;48.884;2.258;2024-02-04T13:05:28;12.80;99.90
41058;DHT22;66768;48.884;2.258;2024-02-04T13:07:57;12.70;99.90
41058;DHT22;66768;48.884;2.258;2024-02-04T13:10:25;12.70;99.90
41058;DHT22;66768;48.884;2.258;2024-02-04T13:13:02;12.80;99.90
41058;DHT22;66768;48.884;2.258;2024-02-04T13:15:40;12.90;99.90
41058;DHT22;66768;48.884;2.258;2024-02-04T13:18:07;12.80;99.90
41058;DHT22;66768;48.884;2.258;2024-02-04T13:20:37;12.80;99.90
41058;DHT22;66768;48.884;2.258;2024-02-04T13:23:03;12.90;99.90
41058;DHT22;66768;48.884;2.258;2024-02-04T13:25:31;12.80;99.90
41058;DHT22;66768;48.884;2.258;2024-02-04T13:27:58;12.90;99.90
41058;DHT22;66768;48.884;2.258;2024-02-04T13:30:25;12.70;99.90
41058;DHT22;66768;48.884;2.258;2024-02-04T13:32:53;12.80;99.90
41058;DHT22;66768;48.884;2.258;2024-02-04T13:35:24;12.80;99.90
41058;DHT22;66768;48.884;2.258;2024-02-04T13:37:51;12.70;99.90
41058;DHT22;66768;48.884;2.258;2024-02-04T13:40:19;12.70;99.90
41058;DHT22;66768;48.884;2.258;2024-02-04T13:42:46;12.70;99.90
41058;DHT22;66768;48.884;2.258;2024-02-04T13:45:13;12.80;99.90
41058;DHT22;66768;48.884;2.258;2024-02-04T13:47:40;12.70;99.90
41058;DHT22;66768;48.884;2.258;2024-02-04T13:50:10;12.70;99.90
41058;DHT22;66768;48.884;2.258;2024-02-04T13:52:37;12.70;99.90
41058;DHT22;66768;48.884;2.258;2024-02-04T13:55:05;12.60;99.90
41058;DHT22;66768;48.884;2.258;2024-02-04T13:57:32;12.70;99.90
41058;DHT22;66768;48.884;2.258;2024-02-04T14:00:01;12.70;99.90
41058;DHT22;66768;48.884;2.258;2024-02-04T14:02:29;12.70;99.90
41058;DHT22;66768;48.884;2.258;2024-02-04T14:04:56;12.70;99.90
41058;DHT22;66768;48.884;2.258;2024-02-04T14:07:25;12.60;99.90
41058;DHT22;66768;48.884;2.258;2024-02-04T14:09:52;12.70;99.90
41058;DHT22;66768;48.884;2.258;2024-02-04T14:12:19;12.70;99.90
41058;DHT22;66768;48.884;2.258;2024-02-04T14:14:48;12.70;99.90
41058;DHT22;66768;48.884;2.258;2024-02-04T14:17:15;12.60;99.90
41058;DHT22;66768;48.884;2.258;2024-02-04T14:19:42;12.60;99.90
41058;DHT22;66768;48.884;2.258;2024-02-04T14:22:10;12.60;99.90
41058;DHT22;66768;48.884;2.258;2024-02-04T14:24:39;12.50;99.90
41058;DHT22;66768;48.884;2.258;2024-02-04T14:27:05;12.60;99.90
41058;DHT22;66768;48.884;2.258;2024-02-04T14:29:32;12.60;99.90
41058;DHT22;66768;48.884;2.258;2024-02-04T14:31:59;12.60;99.90
41058;DHT22;66768;48.884;2.258;2024-02-04T14:34:26;12.60;99.90
41058;DHT22;66768;48.884;2.258;2024-02-04T14:36:54;12.60;99.90
41058;DHT22;66768;48.884;2.258;2024-02-04T14:39:20;12.50;99.90
41058;DHT22;66768;48.884;2.258;2024-02-04T14:41:49;12.60;99.90
41058;DHT22;66768;48.884;2.258;2024-02-04T14:44:15;12.50;99.90
41058;DHT22;66768;48.884;2.258;2024-02-04T14:46:42;12.60;99.90
41058;DHT22;66768;48.884;2.258;2024-02-04T14:49:11;12.50;99.90
41058;DHT22;66768;48.884;2.258;2024-02-04T14:51:39;12.60;99.90
41058;DHT22;66768;48.884;2.258;2024-02-04T14:54:06;12.60;99.90
41058;DHT22;66768;48.884;2.258;2024-02-04T14:56:37;12.50;99.90
41058;DHT22;66768;48.884;2.258;2024-02-04T14:59:05;12.50;99.90
41058;DHT22;66768;48.884;2.258;2024-02-04T15:01:33;12.60;99.90
41058;DHT22;66768;48.884;2.258;2024-02-04T15:04:00;12.60;99.90
41058;DHT22;66768;48.884;2.258;2024-02-04T15:06:27;12.50;99.90
41058;DHT22;66768;48.884;2.258;2024-02-04T15:08:55;12.50;99.90
41058;DHT22;66768;48.884;2.258;2024-02-04T15:11:23;12.50;99.90
41058;DHT22;66768;48.884;2.258;2024-02-04T15:13:51;12.60;99.90
41058;DHT22;66768;48.884;2.258;2024-02-04T15:16:19;12.50;99.90
41058;DHT22;66768;48.884;2.258;2024-02-04T15:18:47;12.50;99.90
41058;DHT22;66768;48.884;2.258;2024-02-04T15:21:14;12.60;99.90
41058;DHT22;66768;48.884;2.258;2024-02-04T15:23:42;12.60;99.90
41058;DHT22;66768;48.884;2.258;2024-02-04T15:26:11;12.60;99.90
41058;DHT22;66768;48.884;2.258;2024-02-04T15:28:38;12.60;99.90
41058;DHT22;66768;48.884;2.258;2024-02-04T15:31:06;12.60;99.90
41058;DHT22;66768;48.884;2.258;2024-02-04T15:33:35;12.60;99.90